sensor_id;sensor_type;location;lat;lon;timestamp;pressure;altitude;pressure_sealevel;temperature;humidity
41573;BME280;27286;47.870;19.006;2023-03-22T00:01:55;99241.41;;;3.27;90.54
41573;BME280;27286;47.870;19.006;2023-03-22T00:04:21;99241.44;;;3.25;91.02
41573;BME280;27286;47.870;19.006;2023-03-22T00:06:47;99240.53;;;3.28;92.09
41573;BME280;27286;47.870;19.006;2023-03-22T00:09:12;99239.75;;;3.24;92.15
41573;BME280;27286;47.870;19.006;2023-03-22T00:11:38;99245.81;;;3.19;92.06
41573;BME280;27286;47.870;19.006;2023-03-22T00:14:03;99237.41;;;3.08;92.85
41573;BME280;27286;47.870;19.006;2023-03-22T00:16:30;99241.81;;;2.99;92.58
41573;BME280;27286;47.870;19.006;2023-03-22T00:18:55;99246.09;;;2.99;93.43
41573;BME280;27286;47.870;19.006;2023-03-22T00:21:21;99239.38;;;2.90;93.40
41573;BME280;27286;47.870;19.006;2023-03-22T00:23:46;99243.72;;;2.85;94.02
41573;BME280;27286;47.870;19.006;2023-03-22T00:26:12;99242.94;;;2.80;93.79
41573;BME280;27286;47.870;19.006;2023-03-22T00:28:39;99248.06;;;2.80;93.44
41573;BME280;27286;47.870;19.006;2023-03-22T00:31:05;99239.47;;;2.81;93.57
41573;BME280;27286;47.870;19.006;2023-03-22T00:33:31;99238.66;;;2.79;94.31
41573;BME280;27286;47.870;19.006;2023-03-22T00:35:59;99241.19;;;2.82;94.17
41573;BME280;27286;47.870;19.006;2023-03-22T00:38:25;99240.28;;;2.88;94.64
41573;BME280;27286;47.870;19.006;2023-03-22T00:41:21;99242.00;;;2.87;94.18
41573;BME280;27286;47.870;19.006;2023-03-22T00:43:48;99239.44;;;2.84;94.71
41573;BME280;27286;47.870;19.006;2023-03-22T00:46:16;99237.78;;;2.80;94.96
41573;BME280;27286;47.870;19.006;2023-03-22T00:48:42;99241.19;;;2.81;94.82
41573;BME280;27286;47.870;19.006;2023-03-22T00:51:08;99241.28;;;2.76;95.17
41573;BME280;27286;47.870;19.006;2023-03-22T00:53:34;99241.31;;;2.73;95.12
41573;BME280;27286;47.870;19.006;2023-03-22T00:56:00;99233.66;;;2.70;95.61
41573;BME280;27286;47.870;19.006;2023-03-22T00:58:26;99234.53;;;2.66;96.76
41573;BME280;27286;47.870;19.006;2023-03-22T01:00:51;99239.69;;;2.66;96.20
41573;BME280;27286;47.870;19.006;2023-03-22T01:03:16;99224.44;;;2.54;97.12
41573;BME280;27286;47.870;19.006;2023-03-22T01:05:45;99228.69;;;2.56;97.23
41573;BME280;27286;47.870;19.006;2023-03-22T01:08:11;99228.72;;;2.53;98.09
41573;BME280;27286;47.870;19.006;2023-03-22T01:10:38;99221.00;;;2.53;97.95
41573;BME280;27286;47.870;19.006;2023-03-22T01:13:04;99221.00;;;2.55;98.41
41573;BME280;27286;47.870;19.006;2023-03-22T01:15:30;99226.13;;;2.52;98.02
41573;BME280;27286;47.870;19.006;2023-03-22T01:17:56;99218.50;;;2.47;98.59
41573;BME280;27286;47.870;19.006;2023-03-22T01:20:21;99215.06;;;2.47;98.02
41573;BME280;27286;47.870;19.006;2023-03-22T01:22:47;99215.03;;;2.50;99.04
41573;BME280;27286;47.870;19.006;2023-03-22T01:25:13;99213.31;;;2.53;98.60
41573;BME280;27286;47.870;19.006;2023-03-22T01:27:38;99213.22;;;2.58;99.18
41573;BME280;27286;47.870;19.006;2023-03-22T01:30:05;99209.75;;;2.62;99.14
41573;BME280;27286;47.870;19.006;2023-03-22T01:32:31;99205.38;;;2.67;99.35
41573;BME280;27286;47.870;19.006;2023-03-22T01:34:57;99206.00;;;2.87;99.80
41573;BME280;27286;47.870;19.006;2023-03-22T01:37:22;99207.41;;;3.08;99.66
41573;BME280;27286;47.870;19.006;2023-03-22T01:39:55;99208.97;;;3.20;98.20
41573;BME280;27286;47.870;19.006;2023-03-22T01:42:22;99211.31;;;3.32;97.33
41573;BME280;27286;47.870;19.006;2023-03-22T01:45:49;99208.63;;;3.41;96.28
41573;BME280;27286;47.870;19.006;2023-03-22T01:50:51;99205.78;;;3.56;95.77
41573;BME280;27286;47.870;19.006;2023-03-22T01:53:20;99205.69;;;3.62;94.86
41573;BME280;27286;47.870;19.006;2023-03-22T01:55:48;99212.41;;;3.71;95.31
41573;BME280;27286;47.870;19.006;2023-03-22T01:58:15;99203.72;;;3.77;95.70
41573;BME280;27286;47.870;19.006;2023-03-22T02:00:43;99199.31;;;3.83;96.21
41573;BME280;27286;47.870;19.006;2023-03-22T02:03:09;99194.06;;;3.89;96.29
41573;BME280;27286;47.870;19.006;2023-03-22T02:05:37;99191.31;;;3.99;96.19
41573;BME280;27286;47.870;19.006;2023-03-22T02:08:03;99193.84;;;4.00;95.38
41573;BME280;27286;47.870;19.006;2023-03-22T02:10:29;99197.25;;;4.02;94.97
41573;BME280;27286;47.870;19.006;2023-03-22T02:13:17;99194.59;;;4.07;95.04
41573;BME280;27286;47.870;19.006;2023-03-22T02:16:07;99208.28;;;4.10;94.82
41573;BME280;27286;47.870;19.006;2023-03-22T02:18:41;99212.50;;;4.13;94.66
41573;BME280;27286;47.870;19.006;2023-03-22T02:21:31;99213.31;;;4.15;94.96
41573;BME280;27286;47.870;19.006;2023-03-22T02:29:58;99204.56;;;4.25;94.28
41573;BME280;27286;47.870;19.006;2023-03-22T02:48:39;99201.72;;;4.39;94.11
41573;BME280;27286;47.870;19.006;2023-03-22T02:51:28;99203.47;;;4.35;93.93
41573;BME280;27286;47.870;19.006;2023-03-22T02:54:03;99207.97;;;4.26;93.57
41573;BME280;27286;47.870;19.006;2023-03-22T02:56:34;99204.69;;;4.17;93.83
41573;BME280;27286;47.870;19.006;2023-03-22T02:59:04;99214.09;;;4.20;93.83
41573;BME280;27286;47.870;19.006;2023-03-22T03:01:39;99215.75;;;4.24;94.07
41573;BME280;27286;47.870;19.006;2023-03-22T03:04:11;99213.09;;;4.27;93.46
41573;BME280;27286;47.870;19.006;2023-03-22T03:06:42;99213.06;;;4.29;94.29
41573;BME280;27286;47.870;19.006;2023-03-22T03:09:15;99212.06;;;4.37;93.29
41573;BME280;27286;47.870;19.006;2023-03-22T03:11:45;99219.72;;;4.40;93.63
41573;BME280;27286;47.870;19.006;2023-03-22T03:14:25;99219.69;;;4.42;93.95
41573;BME280;27286;47.870;19.006;2023-03-22T03:17:37;99205.84;;;4.46;93.99
41573;BME280;27286;47.870;19.006;2023-03-22T03:25:27;99214.94;;;4.64;93.63
41573;BME280;27286;47.870;19.006;2023-03-22T03:31:02;99221.69;;;4.69;93.58
41573;BME280;27286;47.870;19.006;2023-03-22T03:33:31;99209.84;;;4.61;93.83
41573;BME280;27286;47.870;19.006;2023-03-22T03:36:03;99220.13;;;4.62;94.34
41573;BME280;27286;47.870;19.006;2023-03-22T03:38:33;99215.00;;;4.61;94.62
41573;BME280;27286;47.870;19.006;2023-03-22T03:41:13;99211.53;;;4.62;94.92
41573;BME280;27286;47.870;19.006;2023-03-22T03:43:41;99213.94;;;4.69;94.54
41573;BME280;27286;47.870;19.006;2023-03-22T03:46:07;99216.53;;;4.69;94.19
41573;BME280;27286;47.870;19.006;2023-03-22T03:48:35;99215.78;;;4.64;93.93
41573;BME280;27286;47.870;19.006;2023-03-22T03:51:02;99213.44;;;4.52;93.27
41573;BME280;27286;47.870;19.006;2023-03-22T03:53:28;99218.03;;;4.39;93.65
41573;BME280;27286;47.870;19.006;2023-03-22T03:55:54;99214.75;;;4.30;94.62
41573;BME280;27286;47.870;19.006;2023-03-22T03:58:19;99229.47;;;4.25;95.13
41573;BME280;27286;47.870;19.006;2023-03-22T04:00:45;99228.69;;;4.21;95.32
41573;BME280;27286;47.870;19.006;2023-03-22T04:03:12;99227.84;;;4.20;95.54
41573;BME280;27286;47.870;19.006;2023-03-22T04:05:37;99226.13;;;4.19;95.53
41573;BME280;27286;47.870;19.006;2023-03-22T04:08:03;99228.69;;;4.19;95.85
41573;BME280;27286;47.870;19.006;2023-03-22T04:10:28;99234.59;;;4.26;96.38
41573;BME280;27286;47.870;19.006;2023-03-22T04:12:54;99234.59;;;4.26;97.46
41573;BME280;27286;47.870;19.006;2023-03-22T04:15:19;99233.00;;;4.20;96.96
41573;BME280;27286;47.870;19.006;2023-03-22T04:17:45;99218.34;;;4.22;97.84
41573;BME280;27286;47.870;19.006;2023-03-22T04:20:11;99217.53;;;4.20;98.40
41573;BME280;27286;47.870;19.006;2023-03-22T04:22:38;99226.09;;;4.22;98.43
41573;BME280;27286;47.870;19.006;2023-03-22T04:25:10;99228.06;;;4.08;97.80
41573;BME280;27286;47.870;19.006;2023-03-22T04:27:41;99225.03;;;3.85;97.70
41573;BME280;27286;47.870;19.006;2023-03-22T04:30:13;99234.06;;;3.59;97.33
41573;BME280;27286;47.870;19.006;2023-03-22T04:32:46;99231.84;;;3.35;96.94
41573;BME280;27286;47.870;19.006;2023-03-22T04:35:12;99223.53;;;3.18;96.76
41573;BME280;27286;47.870;19.006;2023-03-22T04:37:38;99219.34;;;3.12;96.87
41573;BME280;27286;47.870;19.006;2023-03-22T04:40:04;99227.78;;;3.22;98.95
41573;BME280;27286;47.870;19.006;2023-03-22T04:42:32;99230.38;;;3.20;100.00
41573;BME280;27286;47.870;19.006;2023-03-22T04:44:57;99237.91;;;3.31;99.90
41573;BME280;27286;47.870;19.006;2023-03-22T04:47:23;99230.19;;;3.31;100.00
41573;BME280;27286;47.870;19.006;2023-03-22T04:49:48;99236.22;;;3.30;100.00
41573;BME280;27286;47.870;19.006;2023-03-22T04:52:14;99239.53;;;3.40;100.00
41573;BME280;27286;47.870;19.006;2023-03-22T04:54:40;99243.75;;;3.42;100.00
41573;BME280;27286;47.870;19.006;2023-03-22T04:57:05;99241.22;;;3.41;100.00
41573;BME280;27286;47.870;19.006;2023-03-22T04:59:31;99241.25;;;3.39;100.00
41573;BME280;27286;47.870;19.006;2023-03-22T05:01:56;99245.50;;;3.40;100.00
41573;BME280;27286;47.870;19.006;2023-03-22T05:04:22;99250.59;;;3.43;100.00
41573;BME280;27286;47.870;19.006;2023-03-22T05:06:47;99244.59;;;3.44;100.00
41573;BME280;27286;47.870;19.006;2023-03-22T05:09:13;99245.34;;;3.49;100.00
41573;BME280;27286;47.870;19.006;2023-03-22T05:11:39;99246.88;;;3.62;100.00
41573;BME280;27286;47.870;19.006;2023-03-22T05:14:06;99256.00;;;3.80;100.00
41573;BME280;27286;47.870;19.006;2023-03-22T05:16:32;99256.72;;;3.90;100.00
41573;BME280;27286;47.870;19.006;2023-03-22T05:18:57;99254.97;;;3.92;100.00
41573;BME280;27286;47.870;19.006;2023-03-22T05:21:24;99250.69;;;3.91;99.59
41573;BME280;27286;47.870;19.006;2023-03-22T05:23:53;99263.47;;;3.96;99.28
41573;BME280;27286;47.870;19.006;2023-03-22T05:26:19;99259.81;;;4.09;99.00
41573;BME280;27286;47.870;19.006;2023-03-22T05:28:45;99256.94;;;4.26;99.33
41573;BME280;27286;47.870;19.006;2023-03-22T05:31:10;99249.59;;;4.49;98.97
41573;BME280;27286;47.870;19.006;2023-03-22T05:33:39;99252.69;;;4.66;98.13
41573;BME280;27286;47.870;19.006;2023-03-22T05:36:06;99246.63;;;4.70;97.16
41573;BME280;27286;47.870;19.006;2023-03-22T05:38:31;99255.03;;;4.78;97.33
41573;BME280;27286;47.870;19.006;2023-03-22T05:40:57;99257.50;;;4.83;96.94
41573;BME280;27286;47.870;19.006;2023-03-22T05:43:22;99250.53;;;4.88;96.84
41573;BME280;27286;47.870;19.006;2023-03-22T05:45:48;99262.44;;;4.94;97.03
41573;BME280;27286;47.870;19.006;2023-03-22T05:48:13;99264.81;;;5.03;97.05
41573;BME280;27286;47.870;19.006;2023-03-22T05:50:39;99257.03;;;5.06;96.92
41573;BME280;27286;47.870;19.006;2023-03-22T05:53:05;99264.44;;;5.20;96.85
41573;BME280;27286;47.870;19.006;2023-03-22T05:55:30;99255.75;;;5.25;96.82
41573;BME280;27286;47.870;19.006;2023-03-22T05:57:57;99267.31;;;5.46;96.67
41573;BME280;27286;47.870;19.006;2023-03-22T06:00:23;99264.31;;;5.63;96.58
41573;BME280;27286;47.870;19.006;2023-03-22T06:02:50;99263.84;;;5.83;95.89
41573;BME280;27286;47.870;19.006;2023-03-22T06:05:18;99280.50;;;6.07;93.74
41573;BME280;27286;47.870;19.006;2023-03-22T06:07:45;99279.69;;;6.39;92.13
41573;BME280;27286;47.870;19.006;2023-03-22T06:10:11;99277.81;;;6.75;90.40
41573;BME280;27286;47.870;19.006;2023-03-22T06:12:37;99270.63;;;7.14;88.90
41573;BME280;27286;47.870;19.006;2023-03-22T06:15:04;99266.69;;;7.58;87.06
41573;BME280;27286;47.870;19.006;2023-03-22T06:17:30;99278.34;;;7.98;85.79
41573;BME280;27286;47.870;19.006;2023-03-22T06:19:55;99284.94;;;8.33;84.90
41573;BME280;27286;47.870;19.006;2023-03-22T06:22:21;99280.03;;;8.75;85.27
41573;BME280;27286;47.870;19.006;2023-03-22T06:24:47;99277.03;;;9.09;84.01
41573;BME280;27286;47.870;19.006;2023-03-22T06:27:13;99278.13;;;9.47;83.13
41573;BME280;27286;47.870;19.006;2023-03-22T06:29:39;99277.00;;;9.76;81.68
41573;BME280;27286;47.870;19.006;2023-03-22T06:32:04;99291.28;;;10.08;80.48
41573;BME280;27286;47.870;19.006;2023-03-22T06:34:31;99289.91;;;10.42;79.08
41573;BME280;27286;47.870;19.006;2023-03-22T06:36:57;99286.50;;;10.60;76.96
41573;BME280;27286;47.870;19.006;2023-03-22T06:39:22;99301.31;;;10.58;74.08
41573;BME280;27286;47.870;19.006;2023-03-22T06:41:48;99302.13;;;10.60;72.35
41573;BME280;27286;47.870;19.006;2023-03-22T06:44:15;99297.84;;;10.58;71.86
41573;BME280;27286;47.870;19.006;2023-03-22T06:46:40;99302.03;;;10.62;72.25
41573;BME280;27286;47.870;19.006;2023-03-22T06:49:06;99304.78;;;10.59;71.77
41573;BME280;27286;47.870;19.006;2023-03-22T06:51:32;99295.31;;;10.56;70.56
41573;BME280;27286;47.870;19.006;2023-03-22T06:53:58;99303.53;;;10.67;70.55
41573;BME280;27286;47.870;19.006;2023-03-22T06:56:23;99304.16;;;10.72;70.36
41573;BME280;27286;47.870;19.006;2023-03-22T06:58:49;99300.47;;;10.78;70.76
41573;BME280;27286;47.870;19.006;2023-03-22T07:01:16;99303.41;;;10.89;70.90
41573;BME280;27286;47.870;19.006;2023-03-22T07:03:42;99295.13;;;11.00;70.61
41573;BME280;27286;47.870;19.006;2023-03-22T07:06:08;99293.59;;;11.14;71.10
41573;BME280;27286;47.870;19.006;2023-03-22T07:08:35;99302.25;;;11.34;70.45
41573;BME280;27286;47.870;19.006;2023-03-22T07:11:01;99301.88;;;11.41;70.28
41573;BME280;27286;47.870;19.006;2023-03-22T07:13:27;99292.78;;;11.50;69.27
41573;BME280;27286;47.870;19.006;2023-03-22T07:15:57;99296.59;;;11.62;68.39
41573;BME280;27286;47.870;19.006;2023-03-22T07:18:23;99292.47;;;11.75;69.47
41573;BME280;27286;47.870;19.006;2023-03-22T07:20:49;99302.00;;;11.95;69.46
41573;BME280;27286;47.870;19.006;2023-03-22T07:23:15;99301.44;;;12.05;67.85
41573;BME280;27286;47.870;19.006;2023-03-22T07:25:42;99306.56;;;12.07;65.65
41573;BME280;27286;47.870;19.006;2023-03-22T07:28:08;99309.09;;;12.09;64.94
41573;BME280;27286;47.870;19.006;2023-03-22T07:30:35;99310.34;;;12.19;64.95
41573;BME280;27286;47.870;19.006;2023-03-22T07:33:02;99303.97;;;12.24;65.12
41573;BME280;27286;47.870;19.006;2023-03-22T07:35:28;99303.59;;;12.32;64.26
41573;BME280;27286;47.870;19.006;2023-03-22T07:37:54;99298.69;;;12.60;64.01
41573;BME280;27286;47.870;19.006;2023-03-22T07:40:20;99303.44;;;12.85;61.06
41573;BME280;27286;47.870;19.006;2023-03-22T07:42:49;99306.00;;;13.20;59.53
41573;BME280;27286;47.870;19.006;2023-03-22T07:45:16;99301.13;;;13.45;59.92
41573;BME280;27286;47.870;19.006;2023-03-22T07:47:42;99300.19;;;13.62;58.90
41573;BME280;27286;47.870;19.006;2023-03-22T07:50:09;99309.34;;;13.85;56.87
41573;BME280;27286;47.870;19.006;2023-03-22T07:52:40;99294.66;;;13.98;55.71
41573;BME280;27286;47.870;19.006;2023-03-22T07:55:08;99294.50;;;13.85;55.18
41573;BME280;27286;47.870;19.006;2023-03-22T07:57:34;99302.09;;;13.90;55.99
41573;BME280;27286;47.870;19.006;2023-03-22T08:00:00;99304.84;;;14.03;55.62
41573;BME280;27286;47.870;19.006;2023-03-22T08:02:25;99305.78;;;14.02;54.75
41573;BME280;27286;47.870;19.006;2023-03-22T08:04:51;99304.59;;;13.92;55.12
41573;BME280;27286;47.870;19.006;2023-03-22T08:07:19;99305.31;;;13.79;55.47
41573;BME280;27286;47.870;19.006;2023-03-22T08:09:44;99306.19;;;13.64;54.89
41573;BME280;27286;47.870;19.006;2023-03-22T08:12:10;99300.44;;;13.58;55.88
41573;BME280;27286;47.870;19.006;2023-03-22T08:14:36;99306.50;;;13.42;57.77
41573;BME280;27286;47.870;19.006;2023-03-22T08:17:05;99307.94;;;13.32;57.62
41573;BME280;27286;47.870;19.006;2023-03-22T08:19:31;99316.44;;;13.20;57.50
41573;BME280;27286;47.870;19.006;2023-03-22T08:21:57;99304.34;;;13.17;57.75
41573;BME280;27286;47.870;19.006;2023-03-22T08:24:24;99305.63;;;13.10;58.53
41573;BME280;27286;47.870;19.006;2023-03-22T08:26:49;99293.97;;;13.00;58.04
41573;BME280;27286;47.870;19.006;2023-03-22T08:29:15;99295.16;;;12.94;57.51
41573;BME280;27286;47.870;19.006;2023-03-22T08:31:41;99293.09;;;12.84;58.85
41573;BME280;27286;47.870;19.006;2023-03-22T08:34:07;99283.44;;;12.69;59.46
41573;BME280;27286;47.870;19.006;2023-03-22T08:36:32;99300.53;;;12.74;59.41
41573;BME280;27286;47.870;19.006;2023-03-22T08:38:58;99300.47;;;12.76;59.24
41573;BME280;27286;47.870;19.006;2023-03-22T08:41:24;99302.78;;;12.82;59.54
41573;BME280;27286;47.870;19.006;2023-03-22T08:43:49;99300.94;;;12.84;58.50
41573;BME280;27286;47.870;19.006;2023-03-22T08:46:15;99289.56;;;12.85;58.59
41573;BME280;27286;47.870;19.006;2023-03-22T08:48:40;99294.78;;;12.85;59.37
41573;BME280;27286;47.870;19.006;2023-03-22T08:51:06;99295.88;;;12.81;59.05
41573;BME280;27286;47.870;19.006;2023-03-22T08:53:31;99307.25;;;12.80;59.10
41573;BME280;27286;47.870;19.006;2023-03-22T08:55:57;99306.16;;;12.84;59.21
41573;BME280;27286;47.870;19.006;2023-03-22T08:58:26;99304.94;;;12.74;58.72
41573;BME280;27286;47.870;19.006;2023-03-22T09:00:51;99303.31;;;12.71;59.25
41573;BME280;27286;47.870;19.006;2023-03-22T09:03:17;99311.25;;;12.70;58.83
41573;BME280;27286;47.870;19.006;2023-03-22T09:05:42;99311.75;;;12.76;59.29
41573;BME280;27286;47.870;19.006;2023-03-22T09:08:08;99312.31;;;12.83;59.08
41573;BME280;27286;47.870;19.006;2023-03-22T09:10:33;99317.88;;;12.92;60.29
41573;BME280;27286;47.870;19.006;2023-03-22T09:12:59;99310.75;;;12.96;59.99
41573;BME280;27286;47.870;19.006;2023-03-22T09:15:25;99305.63;;;13.10;59.41
41573;BME280;27286;47.870;19.006;2023-03-22T09:17:50;99303.97;;;13.25;59.48
41573;BME280;27286;47.870;19.006;2023-03-22T09:20:15;99296.66;;;13.32;58.71
41573;BME280;27286;47.870;19.006;2023-03-22T09:22:42;99301.63;;;13.36;58.46
41573;BME280;27286;47.870;19.006;2023-03-22T09:25:08;99297.06;;;13.40;58.41
41573;BME280;27286;47.870;19.006;2023-03-22T09:27:34;99295.06;;;13.45;57.74
41573;BME280;27286;47.870;19.006;2023-03-22T09:30:00;99289.97;;;13.58;56.78
41573;BME280;27286;47.870;19.006;2023-03-22T09:32:25;99289.72;;;13.62;57.23
41573;BME280;27286;47.870;19.006;2023-03-22T09:34:51;99291.13;;;13.83;56.75
41573;BME280;27286;47.870;19.006;2023-03-22T09:37:18;99293.81;;;13.98;56.68
41573;BME280;27286;47.870;19.006;2023-03-22T09:39:43;99294.09;;;14.07;55.76
41573;BME280;27286;47.870;19.006;2023-03-22T09:45:21;99286.50;;;14.63;53.39
41573;BME280;27286;47.870;19.006;2023-03-22T09:47:57;99294.19;;;14.80;54.04
41573;BME280;27286;47.870;19.006;2023-03-22T09:50:29;99290.06;;;15.04;52.83
41573;BME280;27286;47.870;19.006;2023-03-22T09:52:55;99285.56;;;15.07;51.35
41573;BME280;27286;47.870;19.006;2023-03-22T09:55:38;99286.28;;;15.37;51.62
41573;BME280;27286;47.870;19.006;2023-03-22T09:58:06;99280.69;;;15.56;50.29
41573;BME280;27286;47.870;19.006;2023-03-22T10:00:47;99276.97;;;15.60;49.49
41573;BME280;27286;47.870;19.006;2023-03-22T10:06:03;99284.94;;;15.44;50.64
41573;BME280;27286;47.870;19.006;2023-03-22T10:08:40;99271.03;;;15.29;50.70
41573;BME280;27286;47.870;19.006;2023-03-22T10:16:46;99271.31;;;15.11;50.92
41573;BME280;27286;47.870;19.006;2023-03-22T10:19:21;99275.66;;;15.12;51.33
41573;BME280;27286;47.870;19.006;2023-03-22T10:21:50;99275.56;;;15.13;50.11
41573;BME280;27286;47.870;19.006;2023-03-22T10:24:30;99270.97;;;15.17;50.94
41573;BME280;27286;47.870;19.006;2023-03-22T10:26:56;99262.56;;;15.39;49.45
41573;BME280;27286;47.870;19.006;2023-03-22T10:29:22;99272.66;;;15.59;49.40
41573;BME280;27286;47.870;19.006;2023-03-22T10:31:52;99269.00;;;15.88;49.04
41573;BME280;27286;47.870;19.006;2023-03-22T10:34:23;99273.91;;;16.20;48.71
41573;BME280;27286;47.870;19.006;2023-03-22T10:36:52;99267.06;;;16.17;47.00
41573;BME280;27286;47.870;19.006;2023-03-22T10:39:34;99263.88;;;16.12;46.89
41573;BME280;27286;47.870;19.006;2023-03-22T10:42:09;99263.81;;;16.27;47.71
41573;BME280;27286;47.870;19.006;2023-03-22T10:45:00;99261.50;;;16.22;46.94
41573;BME280;27286;47.870;19.006;2023-03-22T10:47:39;99261.91;;;16.03;46.77
41573;BME280;27286;47.870;19.006;2023-03-22T10:50:12;99259.59;;;16.11;47.05
41573;BME280;27286;47.870;19.006;2023-03-22T10:53:11;99266.19;;;16.04;47.35
41573;BME280;27286;47.870;19.006;2023-03-22T10:55:41;99261.16;;;16.01;46.33
41573;BME280;27286;47.870;19.006;2023-03-22T11:09:19;99242.09;;;15.85;47.40
41573;BME280;27286;47.870;19.006;2023-03-22T11:14:15;99233.88;;;15.64;48.72
41573;BME280;27286;47.870;19.006;2023-03-22T11:17:08;99235.97;;;15.72;48.28
41573;BME280;27286;47.870;19.006;2023-03-22T11:22:06;99232.72;;;15.68;48.26
41573;BME280;27286;47.870;19.006;2023-03-22T11:24:33;99229.00;;;15.85;48.17
41573;BME280;27286;47.870;19.006;2023-03-22T11:29:27;99221.16;;;15.98;49.05
41573;BME280;27286;47.870;19.006;2023-03-22T11:34:23;99219.75;;;15.92;46.92
41573;BME280;27286;47.870;19.006;2023-03-22T11:36:49;99215.44;;;15.91;47.34
41573;BME280;27286;47.870;19.006;2023-03-22T11:39:26;99211.69;;;16.08;47.06
41573;BME280;27286;47.870;19.006;2023-03-22T11:42:03;99210.34;;;16.28;47.04
41573;BME280;27286;47.870;19.006;2023-03-22T11:44:33;99211.91;;;16.55;46.48
41573;BME280;27286;47.870;19.006;2023-03-22T11:47:01;99210.56;;;16.75;46.44
41573;BME280;27286;47.870;19.006;2023-03-22T11:52:14;99205.75;;;16.69;44.96
41573;BME280;27286;47.870;19.006;2023-03-22T11:54:41;99196.56;;;16.88;45.62
41573;BME280;27286;47.870;19.006;2023-03-22T11:57:12;99195.69;;;17.00;43.70
41573;BME280;27286;47.870;19.006;2023-03-22T11:59:49;99190.66;;;16.97;43.33
41573;BME280;27286;47.870;19.006;2023-03-22T12:04:59;99192.78;;;16.79;43.18
41573;BME280;27286;47.870;19.006;2023-03-22T12:07:30;99198.56;;;16.59;41.46
41573;BME280;27286;47.870;19.006;2023-03-22T12:12:35;99204.75;;;16.45;43.65
41573;BME280;27286;47.870;19.006;2023-03-22T12:20:32;99198.03;;;16.28;43.18
41573;BME280;27286;47.870;19.006;2023-03-22T12:23:00;99197.00;;;16.43;44.24
41573;BME280;27286;47.870;19.006;2023-03-22T12:25:29;99197.84;;;16.44;43.59
41573;BME280;27286;47.870;19.006;2023-03-22T12:27:59;99201.53;;;16.54;44.48
41573;BME280;27286;47.870;19.006;2023-03-22T12:30:30;99201.22;;;16.71;43.97
41573;BME280;27286;47.870;19.006;2023-03-22T12:33:18;99204.53;;;16.61;43.97
41573;BME280;27286;47.870;19.006;2023-03-22T12:35:49;99200.91;;;16.63;43.04
41573;BME280;27286;47.870;19.006;2023-03-22T12:40:44;99196.38;;;16.65;42.81
41573;BME280;27286;47.870;19.006;2023-03-22T12:43:16;99194.78;;;16.75;42.81
41573;BME280;27286;47.870;19.006;2023-03-22T12:45:48;99190.38;;;16.76;41.86
41573;BME280;27286;47.870;19.006;2023-03-22T12:48:40;99186.59;;;16.80;43.10
41573;BME280;27286;47.870;19.006;2023-03-22T12:51:10;99186.25;;;16.84;41.50
41573;BME280;27286;47.870;19.006;2023-03-22T12:53:45;99175.63;;;16.86;41.89
41573;BME280;27286;47.870;19.006;2023-03-22T12:56:14;99186.78;;;16.77;41.14
41573;BME280;27286;47.870;19.006;2023-03-22T12:58:44;99185.19;;;16.62;41.15
41573;BME280;27286;47.870;19.006;2023-03-22T13:07:06;99178.59;;;16.81;42.05
41573;BME280;27286;47.870;19.006;2023-03-22T13:27:58;99157.91;;;17.13;41.29
41573;BME280;27286;47.870;19.006;2023-03-22T13:33:14;99149.34;;;17.10;41.79
41573;BME280;27286;47.870;19.006;2023-03-22T13:38:20;99147.69;;;17.09;41.79
41573;BME280;27286;47.870;19.006;2023-03-22T13:40:59;99139.53;;;17.01;41.23
41573;BME280;27286;47.870;19.006;2023-03-22T13:53:55;99125.94;;;16.70;43.20
41573;BME280;27286;47.870;19.006;2023-03-22T14:09:52;99129.63;;;16.55;43.21
41573;BME280;27286;47.870;19.006;2023-03-22T14:15:29;99123.31;;;16.58;42.22
41573;BME280;27286;47.870;19.006;2023-03-22T14:20:33;99125.41;;;16.65;43.34
41573;BME280;27286;47.870;19.006;2023-03-22T14:23:04;99127.00;;;16.68;42.85
41573;BME280;27286;47.870;19.006;2023-03-22T14:25:32;99122.06;;;16.63;42.92
41573;BME280;27286;47.870;19.006;2023-03-22T14:27:59;99122.13;;;16.62;43.78
41573;BME280;27286;47.870;19.006;2023-03-22T14:30:35;99117.63;;;16.64;42.50
41573;BME280;27286;47.870;19.006;2023-03-22T14:33:20;99112.25;;;16.65;42.76
41573;BME280;27286;47.870;19.006;2023-03-22T14:35:48;99114.47;;;16.71;42.42
41573;BME280;27286;47.870;19.006;2023-03-22T14:38:20;99103.25;;;16.69;41.85
41573;BME280;27286;47.870;19.006;2023-03-22T14:40:46;99101.94;;;16.75;42.15
41573;BME280;27286;47.870;19.006;2023-03-22T14:45:49;99099.72;;;16.81;41.93
41573;BME280;27286;47.870;19.006;2023-03-22T14:48:30;99096.66;;;16.88;42.40
41573;BME280;27286;47.870;19.006;2023-03-22T14:50:57;99095.69;;;16.89;41.95
41573;BME280;27286;47.870;19.006;2023-03-22T14:53:30;99096.66;;;16.88;42.65
41573;BME280;27286;47.870;19.006;2023-03-22T14:55:56;99093.06;;;16.89;42.83
41573;BME280;27286;47.870;19.006;2023-03-22T14:58:28;99086.13;;;16.88;42.72
41573;BME280;27286;47.870;19.006;2023-03-22T15:00:59;99087.31;;;16.83;43.34
41573;BME280;27286;47.870;19.006;2023-03-22T15:03:27;99082.06;;;16.83;44.05
41573;BME280;27286;47.870;19.006;2023-03-22T15:05:56;99089.00;;;16.84;43.19
41573;BME280;27286;47.870;19.006;2023-03-22T15:08:24;99086.91;;;16.77;43.83
41573;BME280;27286;47.870;19.006;2023-03-22T15:10:54;99085.13;;;16.77;42.58
41573;BME280;27286;47.870;19.006;2023-03-22T15:13:20;99080.53;;;16.68;42.86
41573;BME280;27286;47.870;19.006;2023-03-22T15:15:48;99080.53;;;16.68;43.60
41573;BME280;27286;47.870;19.006;2023-03-22T15:18:17;99077.38;;;16.63;43.46
41573;BME280;27286;47.870;19.006;2023-03-22T15:20:45;99082.09;;;16.58;43.48
41573;BME280;27286;47.870;19.006;2023-03-22T15:23:17;99080.41;;;16.57;43.31
41573;BME280;27286;47.870;19.006;2023-03-22T15:25:50;99073.31;;;16.46;43.38
41573;BME280;27286;47.870;19.006;2023-03-22T15:28:24;99075.41;;;16.41;44.08